• Join FlightAware (Why Join?)
  • Login
  • US Flag 
04:12AM EDT


 

Airport Tracker/Info


-or-


 

Live Flight TrackerFlight Track Log ✈ TCF3480 ✈ 13-May-2013 ✈ KIAD - KCMH

Flight Track Log - Related Links

Times and Time Zones

All times are in EDT time to prevent confusion due to time zone crossing. See the TCF3480 flight status page for this flight to view local times or setup timezone preferences in your user account.

Time Position Orientation Groundspeed Altitude Reporting Facility
EDT Latitude Longitude Course Direction KTS MPH feet Rate Location/Type
10:51PM 38.9333 -77.5167 288° West 165 190 2,300  Level Potomac TRACON
10:52PM 38.9086 -77.6325 255° West 234 269 6,300 3,240 Climbing Washington Center
10:53PM 38.9028 -77.7256 265° West 256 295 10,200 2,460 Climbing Washington Center
10:54PM 38.9136 -77.8272 278° West 277 319 11,200 1,740 Climbing Washington Center
10:55PM 38.8937 -78.0079 288° West  Level FlightAware Approximate
10:55PM 38.9278 -77.9506 278° West 325 374 13,800  Level Washington Center
10:56PM 38.9215 -78.1193 288° West  Level FlightAware Approximate
10:56PM 38.9439 -78.0792 279° West 352 405 16,100  Level Washington Center
10:57PM 38.9600 -78.2106 279° West 371 427 18,200 2,280 Climbing Washington Center
10:58PM 38.9653 -78.3494 273° West 384 442 20,700 2,160 Climbing Washington Center
10:59PM 38.9681 -78.4883 272° West 390 449 22,700 1,620 Climbing Washington Center
11:00PM 38.9750 -78.6303 274° West 390 449 24,000 540 Climbing Washington Center
11:01PM 38.9775 -78.7797 271° West 404 465 23,800 -540 Descending Washington Center
11:02PM 38.9819 -78.9217 272° West 411 473 23,000 -900 Descending Washington Center
11:03PM 38.9864 -79.0633 272° West 411 473 22,100 -540 Descending Washington Center
11:04PM 38.9906 -79.1997 272° West 399 459 22,000 -60 Descending Washington Center
11:05PM 38.9947 -79.3389 272° West 393 452 22,000  Level Washington Center
11:06PM 38.9967 -79.4753 271° West 387 445 22,000  Level Washington Center
11:07PM 38.9967 -79.6033 270° West 387 445 22,000  Level Washington Center
11:08PM 39.0003 -79.7425 272° West 393 452 22,000  Level Washington Center
11:09PM 39.0039 -79.8789 272° West 398 458 22,000  Level Washington Center
11:12PM 39.0061 -80.1869 271° West 390 449 22,000  Level Indianapolis Center
11:13PM 39.0361 -80.3144 287° West 378 435 22,000  Level Indianapolis Center
11:14PM 39.0708 -80.4369 290° West 367 422 22,000  Level Indianapolis Center
11:15PM 39.1036 -80.5603 289° West 366 421 22,000  Level Indianapolis Center
11:16PM 39.1389 -80.6839 290° West 367 422 22,000  Level Indianapolis Center
11:17PM 39.1750 -80.8081 291° West 369 425 22,000  Level Indianapolis Center
11:18PM 39.2161 -80.9567 290° West 369 425 22,000  Level Indianapolis Center
11:19PM 39.2500 -81.0814 289° West 370 426 22,000  Level Indianapolis Center
11:20PM 39.2861 -81.2083 290° West 377 434 22,000  Level Indianapolis Center
11:21PM 39.3194 -81.3347 289° West 376 433 22,000  Level Indianapolis Center
11:22PM 39.3544 -81.4614 290° West 377 434 22,000  Level Indianapolis Center
11:23PM 39.3886 -81.5881 289° West 376 433 22,000 -900 Level Indianapolis Center
11:24PM 39.4231 -81.7136 290° West 372 428 20,200 -1,800 Descending Indianapolis Center
11:25PM 39.4553 -81.8383 289° West 367 422 18,400 -1,740 Descending Indianapolis Center
11:26PM 39.4875 -81.9597 289° West 360 414 16,700 -1,680 Descending Indianapolis Center
11:27PM 39.5183 -82.0753 289° West 344 396 15,000 -1,740 Descending Indianapolis Center
11:28PM 39.5508 -82.1942 290° West 341 392 13,200 -1,740 Descending Indianapolis Center
11:29PM 39.5836 -82.3075 291° West 335 386 11,500 -1,620 Descending Indianapolis Center
11:30PM 39.6208 -82.4158 294° West 329 379 10,000 -840 Descending Indianapolis Center
11:31PM 39.7139 -82.4781 333° Northwest 318 366 9,900 -540 Descending Indianapolis Center
11:32PM 39.7789 -82.4914 351° North 248 285 9,000 -1,500 Descending Indianapolis Center
11:33PM 39.8572 -82.4961 357° North 259 298 6,900 -1,680 Descending Indianapolis Center
11:34PM 39.9269 -82.5075 353° North 255 293 5,500 -1,140 Descending Indianapolis Center
11:35PM 39.9742 -82.5486 326° Northwest 206 237 4,700 -840 Descending Indianapolis Center
11:36PM 39.9864 -82.6219 282° West 213 245 3,900 -600 Descending Indianapolis Center
11:37PM 39.9914 -82.6956 275° West 205 236 3,500 -660 Descending Indianapolis Center
11:38PM 39.9953 -82.7614 274° West 193 222 2,600 -900 Descending Indianapolis Center
11:39PM 39.9983 -82.8158 274° West 168 193 1,700 -900 Descending Indianapolis Center